createdAt,value
2023-03-31T00:00:45.736Z,262.78
2023-03-31T00:01:40.872Z,255.61
2023-03-31T00:02:36.186Z,257.42
2023-03-31T00:03:31.810Z,265.76
2023-03-31T00:04:27.107Z,272.15
2023-03-31T00:05:22.028Z,280.77
2023-03-31T00:06:18.234Z,285.40
2023-03-31T00:07:13.069Z,292.01
2023-03-31T00:08:08.475Z,298.65
2023-03-31T00:09:03.457Z,297.03
2023-03-31T00:10:07.088Z,300.84
2023-03-31T00:10:54.594Z,300.57
2023-03-31T00:11:48.607Z,302.23
2023-03-31T00:12:43.603Z,304.47
2023-03-31T00:13:38.860Z,303.91
2023-03-31T00:14:34.008Z,294.90
2023-03-31T00:15:29.044Z,289.18
2023-03-31T00:16:24.325Z,280.05
2023-03-31T00:17:19.363Z,282.70
2023-03-31T00:18:14.345Z,278.86
2023-03-31T00:19:09.494Z,282.94
2023-03-31T00:20:04.499Z,286.40
2023-03-31T00:21:01.892Z,287.66
2023-03-31T00:21:54.611Z,283.92
2023-03-31T00:22:49.632Z,279.81
2023-03-31T00:23:44.807Z,276.51
2023-03-31T00:24:39.772Z,268.58
2023-03-31T00:25:34.766Z,261.10
2023-03-31T00:26:29.822Z,258.02
2023-03-31T00:27:24.812Z,261.94
2023-03-31T00:28:19.888Z,263.41
2023-03-31T00:29:14.924Z,263.20
2023-03-31T00:30:10.287Z,264.90
2023-03-31T00:31:05.005Z,272.15
2023-03-31T00:32:00.183Z,274.88
2023-03-31T00:32:55.847Z,275.11
2023-03-31T00:33:51.085Z,271.25
2023-03-31T00:34:46.843Z,272.15
2023-03-31T00:35:41.859Z,269.69
2023-03-31T00:36:37.236Z,264.47
2023-03-31T00:37:32.989Z,263.41
2023-03-31T00:38:28.062Z,263.62
2023-03-31T00:39:23.401Z,271.02
2023-03-31T00:40:19.525Z,277.68
2023-03-31T00:41:14.734Z,286.15
2023-03-31T00:42:10.505Z,297.57
2023-03-31T00:43:05.675Z,302.79
2023-03-31T00:44:00.905Z,307.04
2023-03-31T00:44:56.535Z,310.23
2023-03-31T00:45:51.743Z,311.70
2023-03-31T00:46:47.614Z,311.11
2023-03-31T00:47:42.830Z,312.89
2023-03-31T00:48:38.177Z,308.77
2023-03-31T00:49:33.790Z,308.48
2023-03-31T00:50:29.002Z,305.04
2023-03-31T00:51:24.250Z,305.32
2023-03-31T00:52:20.555Z,304.47
2023-03-31T00:53:15.754Z,301.40
2023-03-31T00:54:11.553Z,297.03
2023-03-31T00:55:06.695Z,299.47
2023-03-31T00:56:02.033Z,295.96
2023-03-31T00:56:57.743Z,294.10
2023-03-31T00:57:52.906Z,298.65
2023-03-31T00:58:48.844Z,301.40
2023-03-31T00:59:43.886Z,301.67
2023-03-31T01:00:39.197Z,299.74
2023-03-31T01:01:34.999Z,302.23
2023-03-31T01:02:30.182Z,301.40
2023-03-31T01:03:25.501Z,299.74
2023-03-31T01:04:21.481Z,296.23
2023-03-31T01:05:16.709Z,292.53
2023-03-31T01:06:12.448Z,288.92
2023-03-31T01:07:07.620Z,285.16
2023-03-31T01:08:02.694Z,282.46
2023-03-31T01:08:58.497Z,276.51
2023-03-31T01:09:53.693Z,274.42
2023-03-31T01:10:49.574Z,269.91
2023-03-31T01:11:44.716Z,262.99
2023-03-31T01:12:39.956Z,257.42
2023-03-31T01:13:35.848Z,254.03
2023-03-31T01:14:30.932Z,251.50
2023-03-31T01:15:26.084Z,254.23
2023-03-31T01:16:22.402Z,255.01
2023-03-31T01:17:17.610Z,259.04
2023-03-31T01:18:13.726Z,268.36
2023-03-31T01:19:08.532Z,280.05
2023-03-31T01:20:03.734Z,287.40
2023-03-31T01:20:59.515Z,295.16
2023-03-31T01:21:54.726Z,303.35
2023-03-31T01:22:50.575Z,312.89
2023-03-31T01:23:45.825Z,317.43
2023-03-31T01:24:40.993Z,318.98
2023-03-31T01:25:36.874Z,323.06
2023-03-31T01:26:32.065Z,327.90
2023-03-31T01:27:27.401Z,332.55
2023-03-31T01:28:23.576Z,335.62
2023-03-31T01:29:18.784Z,335.96
2023-03-31T01:30:14.389Z,333.57
2023-03-31T01:31:09.688Z,334.93
2023-03-31T01:32:04.812Z,332.89
2023-03-31T01:33:00.110Z,331.55
2023-03-31T01:33:56.568Z,327.25
2023-03-31T01:34:51.857Z,322.74
2023-03-31T01:35:46.969Z,323.06
2023-03-31T01:36:42.707Z,318.05
2023-03-31T01:37:37.871Z,320.22
2023-03-31T01:38:33.155Z,321.79
2023-03-31T01:39:29.300Z,325.30
2023-03-31T01:40:24.501Z,329.22
2023-03-31T01:41:20.235Z,321.48
2023-03-31T01:42:15.423Z,312.30
2023-03-31T01:43:10.752Z,306.18
2023-03-31T01:44:06.401Z,306.18
2023-03-31T01:45:01.585Z,305.61
2023-03-31T01:45:57.748Z,303.35
2023-03-31T01:46:52.793Z,307.90
2023-03-31T01:47:48.168Z,306.46
2023-03-31T01:48:44.082Z,308.48
2023-03-31T01:49:39.111Z,316.52
2023-03-31T01:50:34.253Z,322.74
2023-03-31T01:51:29.441Z,323.70
2023-03-31T01:52:24.736Z,324.66
2023-03-31T01:53:19.803Z,320.54
2023-03-31T01:54:15.035Z,315.30
2023-03-31T01:55:10.734Z,308.48
2023-03-31T01:56:06.142Z,305.04
2023-03-31T01:57:01.145Z,299.74
2023-03-31T01:59:26.804Z,307.61
2023-03-31T02:00:21.847Z,306.18
2023-03-31T02:01:18.769Z,309.94
2023-03-31T02:02:12.258Z,312.60
2023-03-31T02:03:07.485Z,318.36
2023-03-31T02:04:02.643Z,322.42
2023-03-31T02:04:57.594Z,326.92
2023-03-31T02:05:52.724Z,329.88
2023-03-31T02:06:48.032Z,327.58
2023-03-31T02:07:43.068Z,328.23
2023-03-31T02:08:38.355Z,320.22
2023-03-31T02:09:33.511Z,312.00
2023-03-31T02:10:28.555Z,309.35
2023-03-31T02:11:23.704Z,314.69
2023-03-31T02:12:18.848Z,316.52
2023-03-31T02:13:14.053Z,313.79
2023-03-31T02:14:09.359Z,311.41
2023-03-31T02:15:04.397Z,306.46
2023-03-31T02:15:59.554Z,304.76
2023-03-31T02:16:54.737Z,301.40
2023-03-31T02:17:49.750Z,299.20
2023-03-31T02:18:45.103Z,295.43
2023-03-31T02:19:40.244Z,290.97
2023-03-31T02:20:35.310Z,282.70
2023-03-31T02:21:30.556Z,274.42
2023-03-31T02:22:25.641Z,264.68
2023-03-31T02:23:20.749Z,260.69
2023-03-31T02:24:16.050Z,257.21
2023-03-31T02:25:11.078Z,253.44
2023-03-31T02:26:06.559Z,249.21
2023-03-31T02:27:01.352Z,242.75
2023-03-31T02:27:56.527Z,238.34
2023-03-31T02:28:51.853Z,234.26
2023-03-31T02:29:46.992Z,234.93
2023-03-31T02:30:42.024Z,235.60
2023-03-31T02:31:37.344Z,233.93
2023-03-31T02:32:32.453Z,234.26
2023-03-31T02:33:27.449Z,234.60
2023-03-31T02:34:22.750Z,235.60
2023-03-31T02:35:17.842Z,231.29
2023-03-31T02:36:13.006Z,227.76
2023-03-31T02:37:08.124Z,225.41
2023-03-31T02:38:03.412Z,226.50
2023-03-31T02:38:58.604Z,227.76
2023-03-31T02:39:53.719Z,227.44
2023-03-31T02:40:48.780Z,230.31
2023-03-31T02:41:44.048Z,226.97
2023-03-31T02:42:39.071Z,224.18
2023-03-31T02:43:34.220Z,221.45
2023-03-31T02:44:29.529Z,222.81
2023-03-31T02:45:24.451Z,225.25
2023-03-31T02:46:19.645Z,226.81
2023-03-31T02:47:14.625Z,225.56
2023-03-31T02:48:09.806Z,229.35
2023-03-31T02:49:04.962Z,231.45
2023-03-31T02:50:00.385Z,230.96
2023-03-31T02:50:55.252Z,231.61
2023-03-31T02:51:50.414Z,230.80
2023-03-31T02:52:45.561Z,234.76
2023-03-31T02:53:40.824Z,236.62
2023-03-31T02:54:35.924Z,240.97
2023-03-31T02:55:31.096Z,242.39
2023-03-31T02:56:26.215Z,242.75
2023-03-31T02:57:21.413Z,245.66
2023-03-31T02:58:16.442Z,245.84
2023-03-31T02:59:11.787Z,250.35
2023-03-31T03:00:06.926Z,251.30
2023-03-31T03:01:01.964Z,250.15
2023-03-31T03:01:57.123Z,253.44
2023-03-31T03:02:52.361Z,252.08
2023-03-31T03:03:47.553Z,256.61
2023-03-31T03:04:42.562Z,257.62
2023-03-31T03:05:37.737Z,259.25
2023-03-31T03:06:32.852Z,259.25
2023-03-31T03:07:28.008Z,256.41
2023-03-31T03:08:23.205Z,257.42
2023-03-31T03:09:18.516Z,256.21
2023-03-31T03:10:13.670Z,253.05
2023-03-31T03:11:08.704Z,253.05
2023-03-31T03:12:03.885Z,254.23
2023-03-31T03:12:59.064Z,253.44
2023-03-31T03:13:54.245Z,254.42
2023-03-31T03:14:49.481Z,254.62
2023-03-31T03:15:44.573Z,252.85
2023-03-31T03:16:39.738Z,249.77
2023-03-31T03:17:34.935Z,244.38
2023-03-31T03:18:29.940Z,240.26
2023-03-31T03:19:25.245Z,236.97
2023-03-31T03:20:20.435Z,233.93
2023-03-31T03:21:15.461Z,231.78
2023-03-31T03:22:10.624Z,227.91
2023-03-31T03:23:05.776Z,220.41
2023-03-31T03:24:00.941Z,215.49
2023-03-31T03:24:56.277Z,208.51
2023-03-31T03:25:51.183Z,204.10
2023-03-31T03:26:46.321Z,202.71
2023-03-31T03:27:41.481Z,202.09
2023-03-31T03:28:36.624Z,200.97
2023-03-31T03:29:31.961Z,197.58
2023-03-31T03:30:27.070Z,195.93
2023-03-31T03:31:22.158Z,194.42
2023-03-31T03:32:17.234Z,195.00
2023-03-31T03:33:13.907Z,191.92
2023-03-31T03:34:07.891Z,192.82
2023-03-31T03:35:02.909Z,183.78
2023-03-31T03:35:58.115Z,168.56
2023-03-31T03:36:53.252Z,168.90
2023-03-31T03:37:48.544Z,170.98
2023-03-31T03:38:43.600Z,168.90
2023-03-31T03:39:38.919Z,174.74
2023-03-31T03:40:33.983Z,175.47
2023-03-31T03:41:29.169Z,177.15
2023-03-31T03:42:24.310Z,178.67
2023-03-31T03:43:19.466Z,179.82
2023-03-31T03:44:14.796Z,180.21
2023-03-31T03:45:09.781Z,181.98
2023-03-31T03:46:05.450Z,184.80
2023-03-31T03:47:00.156Z,186.89
2023-03-31T03:47:55.510Z,189.37
2023-03-31T03:48:50.577Z,192.82
2023-03-31T03:49:45.835Z,196.63
2023-03-31T03:50:40.888Z,198.06
2023-03-31T03:51:36.119Z,200.60
2023-03-31T03:52:31.260Z,205.37
2023-03-31T03:53:26.582Z,209.04
2023-03-31T03:54:21.816Z,214.08
2023-03-31T03:55:16.815Z,213.94
2023-03-31T03:56:11.888Z,215.35
2023-03-31T03:57:07.988Z,216.49
2023-03-31T03:58:03.177Z,217.06
2023-03-31T03:58:58.389Z,218.50
2023-03-31T03:59:53.500Z,219.97
2023-03-31T04:00:48.699Z,220.86
2023-03-31T04:01:43.851Z,218.65
2023-03-31T04:02:39.264Z,219.97
2023-03-31T04:03:34.171Z,219.67
2023-03-31T04:04:29.574Z,217.63
2023-03-31T04:05:24.536Z,215.91
2023-03-31T04:06:19.778Z,216.34
2023-03-31T04:07:14.806Z,215.49
2023-03-31T04:08:09.979Z,205.76
2023-03-31T04:09:05.137Z,202.58
2023-03-31T04:10:00.624Z,203.84
2023-03-31T04:10:55.578Z,205.37
2023-03-31T04:11:50.582Z,204.10
2023-03-31T04:12:45.803Z,206.93
2023-03-31T04:13:41.040Z,205.12
2023-03-31T04:14:36.364Z,203.97
2023-03-31T04:15:31.440Z,202.84
2023-03-31T04:16:26.629Z,202.96
2023-03-31T04:17:21.849Z,204.61
2023-03-31T04:18:17.004Z,208.11
2023-03-31T04:19:12.339Z,206.93
2023-03-31T04:20:07.561Z,199.14
2023-03-31T04:21:02.659Z,195.58
2023-03-31T04:21:57.953Z,189.04
2023-03-31T04:22:53.019Z,185.52
2023-03-31T04:23:48.224Z,186.68
2023-03-31T04:24:43.439Z,187.75
2023-03-31T04:25:38.786Z,191.14
2023-03-31T04:26:33.990Z,195.23
2023-03-31T04:27:29.010Z,196.52
2023-03-31T04:28:24.116Z,197.11
2023-03-31T04:29:19.170Z,196.63
2023-03-31T04:30:14.254Z,195.93
2023-03-31T04:31:09.476Z,195.70
2023-03-31T04:32:04.461Z,196.16
2023-03-31T04:32:59.436Z,194.31
2023-03-31T04:33:54.477Z,195.00
2023-03-31T04:34:49.474Z,196.28
2023-03-31T04:35:44.754Z,196.99
2023-03-31T04:36:39.519Z,193.96
2023-03-31T04:37:34.582Z,192.03
2023-03-31T04:38:29.718Z,191.03
2023-03-31T04:39:24.790Z,191.70
2023-03-31T04:40:19.988Z,193.28
2023-03-31T04:41:15.196Z,191.36
2023-03-31T04:42:10.150Z,183.38
2023-03-31T04:43:05.160Z,180.60
2023-03-31T04:44:00.156Z,183.38
2023-03-31T04:44:55.283Z,181.39
2023-03-31T04:45:50.499Z,179.24
2023-03-31T04:46:45.318Z,173.11
2023-03-31T04:47:40.365Z,172.75
2023-03-31T04:48:35.403Z,162.65
2023-03-31T04:49:30.466Z,152.26
2023-03-31T04:50:25.671Z,147.42
2023-03-31T04:51:20.786Z,132.76
2023-03-31T04:52:16.054Z,135.67
2023-03-31T04:53:11.356Z,142.87
2023-03-31T04:54:06.593Z,146.25
2023-03-31T04:55:02.025Z,148.86
2023-03-31T04:55:57.226Z,153.94
2023-03-31T04:56:52.392Z,157.13
2023-03-31T04:57:47.711Z,153.94
2023-03-31T04:58:43.015Z,155.23
2023-03-31T04:59:38.467Z,155.38
2023-03-31T05:00:33.764Z,151.57
2023-03-31T05:01:28.706Z,146.77
2023-03-31T05:02:25.407Z,148.60
2023-03-31T05:03:18.793Z,149.00
2023-03-31T05:04:13.775Z,150.07
2023-03-31T05:05:08.852Z,149.66
2023-03-31T05:06:04.366Z,150.07
2023-03-31T05:06:58.974Z,147.42
2023-03-31T05:07:53.972Z,146.64
2023-03-31T05:08:49.006Z,144.23
2023-03-31T05:09:44.009Z,142.26
2023-03-31T05:10:39.314Z,142.63
2023-03-31T05:11:34.134Z,144.73
2023-03-31T05:12:29.272Z,144.86
2023-03-31T05:13:24.243Z,145.11
2023-03-31T05:14:19.377Z,146.77
2023-03-31T05:15:14.929Z,146.25
2023-03-31T05:16:10.355Z,146.64
2023-03-31T05:17:05.423Z,148.73
2023-03-31T05:18:00.922Z,148.73
2023-03-31T05:18:56.161Z,148.07
2023-03-31T05:19:51.552Z,149.26
2023-03-31T05:20:47.055Z,149.00
2023-03-31T05:21:42.176Z,149.40
2023-03-31T05:22:37.494Z,148.60
2023-03-31T05:23:33.036Z,148.20
2023-03-31T05:24:28.399Z,148.33
2023-03-31T05:25:23.889Z,147.55
2023-03-31T05:26:18.737Z,146.38
2023-03-31T05:27:13.963Z,146.00
2023-03-31T05:28:09.047Z,144.73
2023-03-31T05:29:07.613Z,142.26
2023-03-31T05:30:02.881Z,141.18
2023-03-31T05:30:58.262Z,140.47
2023-03-31T05:31:53.673Z,141.18
2023-03-31T05:32:49.113Z,139.06
2023-03-31T05:33:44.412Z,138.03
2023-03-31T05:34:40.215Z,136.78
2023-03-31T05:35:35.709Z,138.14
2023-03-31T05:36:30.897Z,139.06
2023-03-31T05:37:26.132Z,138.83
2023-03-31T05:38:21.571Z,137.46
2023-03-31T05:39:16.580Z,134.25
2023-03-31T05:40:11.811Z,136.00
2023-03-31T05:41:06.841Z,136.45
2023-03-31T05:42:02.025Z,137.57
2023-03-31T05:42:57.115Z,137.91
2023-03-31T05:43:52.155Z,137.46
2023-03-31T05:44:47.387Z,139.41
2023-03-31T05:45:42.280Z,139.06
2023-03-31T05:46:37.310Z,137.01
2023-03-31T05:47:32.365Z,135.89
2023-03-31T05:48:27.329Z,131.92
2023-03-31T05:49:22.438Z,133.50
2023-03-31T05:50:17.690Z,137.01
2023-03-31T05:51:12.571Z,138.60
2023-03-31T05:52:09.281Z,142.14
2023-03-31T05:53:04.401Z,143.61
2023-03-31T05:53:59.638Z,146.00
2023-03-31T05:54:55.073Z,147.94
2023-03-31T05:55:49.940Z,147.03
2023-03-31T05:56:45.034Z,139.29
2023-03-31T05:57:40.058Z,140.59
2023-03-31T05:58:35.442Z,143.12
2023-03-31T05:59:30.875Z,140.94
2023-03-31T06:00:26.332Z,139.53
2023-03-31T06:01:21.558Z,140.94
2023-03-31T06:02:16.982Z,145.11
2023-03-31T06:03:12.578Z,145.49
2023-03-31T06:04:07.970Z,148.86
2023-03-31T06:05:03.255Z,151.29
2023-03-31T06:05:58.519Z,148.20
2023-03-31T06:06:53.798Z,147.03
2023-03-31T06:07:49.237Z,145.24
2023-03-31T06:08:44.500Z,146.12
2023-03-31T06:09:40.024Z,146.38
2023-03-31T06:10:35.097Z,147.68
2023-03-31T06:11:30.515Z,149.13
2023-03-31T06:12:25.596Z,142.63
2023-03-31T06:13:20.727Z,126.13
2023-03-31T06:14:15.702Z,111.77
2023-03-31T06:15:14.666Z,107.38
2023-03-31T06:16:09.761Z,115.17
2023-03-31T06:17:05.048Z,123.89
2023-03-31T06:18:00.483Z,129.56
2023-03-31T06:18:55.724Z,137.01
2023-03-31T06:19:51.215Z,140.11
2023-03-31T06:20:46.409Z,141.30
2023-03-31T06:21:41.704Z,140.23
2023-03-31T06:22:37.163Z,139.88
2023-03-31T06:23:32.458Z,142.14
2023-03-31T06:24:28.198Z,142.87
2023-03-31T06:25:23.246Z,145.36
2023-03-31T06:26:18.639Z,146.12
2023-03-31T06:27:13.923Z,144.73
2023-03-31T06:28:09.402Z,145.11
2023-03-31T06:29:04.881Z,145.36
2023-03-31T06:30:00.153Z,145.87
2023-03-31T06:30:55.592Z,144.86
2023-03-31T06:31:50.701Z,145.62
2023-03-31T06:32:45.718Z,147.42
2023-03-31T06:33:40.975Z,153.80
2023-03-31T06:34:36.188Z,155.81
2023-03-31T06:35:31.209Z,160.15
2023-03-31T06:36:26.195Z,156.54
2023-03-31T06:37:21.255Z,162.01
2023-03-31T06:38:16.420Z,167.38
2023-03-31T06:39:11.660Z,176.77
2023-03-31T06:40:06.551Z,181.98
2023-03-31T06:41:01.568Z,185.94
2023-03-31T06:41:57.514Z,191.36
2023-03-31T06:42:52.961Z,193.62
2023-03-31T06:43:48.301Z,196.63
2023-03-31T06:44:43.945Z,196.16
2023-03-31T06:45:39.398Z,198.06
2023-03-31T06:46:34.874Z,197.11
2023-03-31T06:47:30.217Z,195.93
2023-03-31T06:48:25.633Z,199.14
2023-03-31T06:49:21.172Z,189.04
2023-03-31T06:50:16.413Z,182.58
2023-03-31T06:51:11.735Z,176.59
2023-03-31T06:52:07.262Z,178.67
2023-03-31T06:53:02.781Z,180.40
2023-03-31T06:53:58.245Z,181.98
2023-03-31T06:54:53.202Z,182.18
2023-03-31T06:55:48.336Z,179.43
2023-03-31T06:56:43.387Z,179.24
2023-03-31T06:57:38.506Z,177.72
2023-03-31T06:58:33.524Z,178.10
2023-03-31T06:59:28.658Z,173.83
2023-03-31T07:00:23.626Z,171.33
2023-03-31T07:01:20.981Z,169.24
2023-03-31T07:02:15.962Z,169.59
2023-03-31T07:03:11.197Z,167.21
2023-03-31T07:04:06.124Z,164.09
2023-03-31T07:05:01.146Z,157.13
2023-03-31T07:05:56.136Z,152.40
2023-03-31T07:06:51.641Z,152.26
2023-03-31T07:07:46.579Z,152.12
2023-03-31T07:08:41.566Z,151.02
2023-03-31T07:09:36.789Z,148.20
2023-03-31T07:10:31.705Z,146.90
2023-03-31T07:11:26.776Z,143.98
2023-03-31T07:12:21.827Z,144.48
2023-03-31T07:13:16.834Z,145.11
2023-03-31T07:14:12.060Z,143.98
2023-03-31T07:15:06.992Z,144.48
2023-03-31T07:16:02.094Z,145.24
2023-03-31T07:16:57.150Z,145.49
2023-03-31T07:17:52.237Z,143.12
2023-03-31T07:18:47.381Z,143.12
2023-03-31T07:19:42.520Z,143.61
2023-03-31T07:20:37.397Z,144.73
2023-03-31T07:21:32.395Z,146.90
2023-03-31T07:22:27.662Z,148.33
2023-03-31T07:23:23.085Z,148.60
2023-03-31T07:24:18.635Z,149.93
2023-03-31T07:25:14.325Z,151.71
2023-03-31T07:26:09.657Z,153.10
2023-03-31T07:27:05.094Z,154.51
2023-03-31T07:28:00.662Z,154.09
2023-03-31T07:28:55.992Z,154.66
2023-03-31T07:29:51.552Z,153.38
2023-03-31T07:30:46.852Z,154.37
2023-03-31T07:31:42.028Z,152.54
2023-03-31T07:32:37.072Z,156.99
2023-03-31T07:33:32.158Z,159.69
2023-03-31T07:34:27.184Z,162.65
2023-03-31T07:35:22.369Z,164.25
2023-03-31T07:36:17.686Z,163.12
2023-03-31T07:37:12.435Z,162.33
2023-03-31T07:38:07.414Z,161.23
2023-03-31T07:39:02.550Z,160.15
2023-03-31T07:39:57.775Z,157.58
2023-03-31T07:41:02.121Z,157.43
2023-03-31T07:41:49.681Z,158.18
2023-03-31T07:42:43.746Z,158.93
2023-03-31T07:43:38.724Z,159.38
2023-03-31T07:44:34.946Z,158.48
2023-03-31T07:45:30.186Z,158.03
2023-03-31T07:46:26.835Z,157.73
2023-03-31T07:47:22.327Z,161.39
2023-03-31T07:48:17.617Z,164.73
2023-03-31T07:49:12.808Z,173.65
2023-03-31T07:50:08.511Z,183.18
2023-03-31T07:51:03.934Z,190.25
2023-03-31T07:51:59.332Z,197.82
2023-03-31T07:52:54.536Z,207.32
2023-03-31T07:53:50.089Z,215.77
2023-03-31T07:54:45.294Z,221.30
2023-03-31T07:55:40.230Z,229.83
2023-03-31T07:56:35.366Z,239.39
2023-03-31T07:57:30.488Z,249.21
2023-03-31T07:58:25.496Z,257.82
2023-03-31T07:59:20.584Z,260.07
2023-03-31T08:00:15.805Z,269.24
2023-03-31T08:01:10.669Z,265.11
2023-03-31T08:02:05.753Z,265.54
2023-03-31T08:03:01.037Z,269.47
2023-03-31T08:03:56.867Z,263.41
2023-03-31T08:04:52.072Z,262.78
2023-03-31T08:05:47.130Z,262.57
2023-03-31T08:06:42.223Z,255.81
2023-03-31T08:07:37.225Z,270.13
2023-03-31T08:08:32.271Z,288.67
2023-03-31T08:09:27.293Z,299.47
2023-03-31T08:10:22.401Z,316.52
2023-03-31T08:11:17.883Z,325.30
2023-03-31T08:12:13.262Z,330.88
2023-03-31T08:13:08.763Z,332.89
2023-03-31T08:14:04.306Z,356.40
2023-03-31T08:14:59.671Z,377.73
2023-03-31T08:15:55.169Z,387.69
2023-03-31T08:16:50.617Z,388.37
2023-03-31T08:17:46.204Z,406.36
2023-03-31T08:18:41.517Z,419.92
2023-03-31T08:19:37.402Z,429.94
2023-03-31T08:20:32.559Z,430.49
2023-03-31T08:21:28.024Z,423.12
2023-03-31T08:22:23.542Z,411.62
2023-03-31T08:23:18.801Z,398.82
2023-03-31T08:24:14.250Z,352.57
2023-03-31T08:25:09.908Z,356.01
2023-03-31T08:26:05.380Z,352.19
2023-03-31T08:27:04.695Z,372.16
2023-03-31T08:28:00.238Z,397.87
2023-03-31T08:28:55.498Z,397.16
2023-03-31T08:29:51.139Z,386.57
2023-03-31T08:30:46.496Z,360.31
2023-03-31T08:31:41.778Z,354.85
2023-03-31T08:32:37.240Z,352.19
2023-03-31T08:33:32.690Z,355.62
2023-03-31T08:34:28.438Z,333.23
2023-03-31T08:35:23.997Z,341.56
2023-03-31T08:36:19.261Z,376.43
2023-03-31T08:37:14.774Z,395.75
2023-03-31T08:38:10.345Z,416.77
2023-03-31T08:39:05.540Z,429.94
2023-03-31T08:40:01.203Z,442.20
2023-03-31T08:40:56.105Z,449.35
2023-03-31T08:41:51.231Z,452.40
2023-03-31T08:42:46.275Z,400.74
2023-03-31T08:43:41.352Z,430.49
2023-03-31T08:44:36.399Z,464.37
2023-03-31T08:45:31.524Z,498.75
2023-03-31T08:46:26.499Z,495.42
2023-03-31T08:47:21.538Z,450.56
2023-03-31T08:48:16.643Z,402.68
2023-03-31T08:49:11.641Z,377.73
2023-03-31T08:50:07.942Z,360.31
2023-03-31T08:51:03.020Z,293.84
2023-03-31T08:51:58.082Z,323.70
2023-03-31T08:52:53.162Z,363.50
2023-03-31T08:53:49.307Z,439.86
2023-03-31T08:54:44.905Z,504.41
2023-03-31T08:55:40.357Z,537.34
2023-03-31T08:56:35.589Z,557.09
2023-03-31T08:57:30.932Z,604.02
2023-03-31T08:58:26.409Z,656.98
2023-03-31T08:59:21.762Z,681.14
2023-03-31T09:00:17.530Z,711.67
2023-03-31T09:01:12.863Z,707.14
2023-03-31T09:02:08.310Z,700.46
2023-03-31T09:03:06.636Z,747.06
2023-03-31T09:03:59.174Z,773.47
2023-03-31T09:04:54.770Z,826.11
2023-03-31T09:05:59.683Z,842.80
2023-03-31T09:06:46.040Z,850.32
2023-03-31T09:07:40.117Z,882.94
2023-03-31T09:08:35.116Z,747.06
2023-03-31T09:09:30.187Z,700.46
2023-03-31T09:10:25.369Z,704.90
2023-03-31T09:11:20.283Z,758.52
2023-03-31T09:12:15.267Z,806.65
2023-03-31T09:13:12.858Z,835.94
2023-03-31T09:14:08.008Z,858.52
2023-03-31T09:15:03.211Z,864.64
2023-03-31T09:15:58.063Z,872.55
2023-03-31T09:16:53.149Z,853.03
2023-03-31T09:17:48.213Z,824.58
2023-03-31T09:18:43.232Z,819.52
2023-03-31T09:19:38.481Z,836.99
2023-03-31T09:20:34.265Z,838.57
2023-03-31T09:21:29.732Z,884.69
2023-03-31T09:22:25.323Z,970.20
2023-03-31T09:23:20.542Z,1014.44
2023-03-31T09:24:15.945Z,916.27
2023-03-31T09:25:11.549Z,853.58
2023-03-31T09:26:07.120Z,906.31
2023-03-31T09:27:02.318Z,1019.86
2023-03-31T09:27:57.744Z,970.91
2023-03-31T09:28:53.256Z,853.03
2023-03-31T09:29:48.619Z,929.67
2023-03-31T09:30:44.048Z,1031.69
2023-03-31T09:31:39.469Z,1139.08
2023-03-31T09:32:34.794Z,1120.91
2023-03-31T09:33:30.318Z,1138.11
2023-03-31T09:34:25.884Z,1097.86
2023-03-31T09:35:21.286Z,1042.97
2023-03-31T09:36:20.854Z,1040.53
2023-03-31T09:37:16.031Z,1019.86
2023-03-31T09:38:11.389Z,1078.35
2023-03-31T09:39:06.839Z,1145.92
2023-03-31T09:40:02.399Z,1180.37
2023-03-31T09:40:57.686Z,1317.87
2023-03-31T09:41:53.091Z,1348.48
2023-03-31T09:42:48.617Z,1267.81
2023-03-31T09:43:43.855Z,1289.85
2023-03-31T09:44:39.301Z,1306.26
2023-03-31T09:45:34.650Z,1339.02
2023-03-31T09:46:30.393Z,1427.81
2023-03-31T09:47:25.710Z,1489.95
2023-03-31T09:48:21.025Z,1447.94
2023-03-31T09:49:16.254Z,1435.48
2023-03-31T09:50:11.784Z,1435.48
2023-03-31T09:51:07.243Z,1418.70
2023-03-31T09:52:02.694Z,1534.48
2023-03-31T09:52:57.677Z,1642.07
2023-03-31T09:53:52.707Z,1538.91
2023-03-31T09:54:47.701Z,1488.29
2023-03-31T09:55:42.801Z,1501.69
2023-03-31T09:56:37.886Z,1652.23
2023-03-31T09:57:34.132Z,1778.81
2023-03-31T09:58:27.975Z,1738.28
2023-03-31T09:59:24.014Z,1679.24
2023-03-31T10:00:19.447Z,1622.11
2023-03-31T10:01:14.729Z,1632.03
2023-03-31T10:02:10.143Z,1654.28
2023-03-31T10:03:05.646Z,1664.59
2023-03-31T10:04:01.221Z,1692.02
2023-03-31T10:04:56.390Z,1578.01
2023-03-31T10:05:51.985Z,1583.63
2023-03-31T10:06:47.455Z,1805.27
2023-03-31T10:07:42.658Z,1893.62
2023-03-31T10:08:38.153Z,1920.86
2023-03-31T10:09:33.625Z,1970.48
2023-03-31T10:10:29.486Z,2165.45
2023-03-31T10:11:24.737Z,2262.71
2023-03-31T10:12:20.151Z,2274.28
2023-03-31T10:13:15.127Z,2394.62
2023-03-31T10:14:10.220Z,2348.28
2023-03-31T10:15:05.270Z,2223.15
2023-03-31T10:16:00.605Z,2307.69
2023-03-31T10:16:55.469Z,2407.57
2023-03-31T10:20:11.323Z,2683.42
2023-03-31T10:21:08.672Z,2379.68
2023-03-31T10:22:02.042Z,2360.74
2023-03-31T10:22:57.487Z,2362.83
2023-03-31T10:23:52.886Z,2297.76
2023-03-31T10:24:48.425Z,2255.07
2023-03-31T10:25:43.806Z,1882.93
2023-03-31T10:26:39.377Z,2055.43
2023-03-31T10:27:34.722Z,2317.71
2023-03-31T10:28:30.381Z,2293.81
2023-03-31T10:29:25.844Z,2579.71
2023-03-31T10:30:21.210Z,2886.49
2023-03-31T10:31:16.794Z,3124.63
2023-03-31T10:32:12.035Z,3254.11
2023-03-31T10:33:19.228Z,3274.06
2023-03-31T10:34:03.901Z,3337.50
2023-03-31T10:34:58.310Z,3152.30
2023-03-31T10:35:53.824Z,3252.13
2023-03-31T10:36:49.189Z,3276.07
2023-03-31T10:37:44.410Z,3240.29
2023-03-31T10:38:39.899Z,3358.49
2023-03-31T10:39:35.156Z,3392.63
2023-03-31T10:40:30.556Z,3248.18
2023-03-31T10:41:26.280Z,3046.21
2023-03-31T10:42:21.551Z,2943.77
2023-03-31T10:43:17.297Z,3079.58
2023-03-31T10:44:12.778Z,3068.97
2023-03-31T10:45:08.145Z,2390.33
2023-03-31T10:46:03.724Z,2651.44
2023-03-31T10:46:59.388Z,2858.67
2023-03-31T10:47:54.615Z,3093.86
2023-03-31T10:48:49.868Z,3197.60
2023-03-31T10:49:45.477Z,3108.26
2023-03-31T10:50:40.841Z,2930.84
2023-03-31T10:51:36.380Z,3070.73
2023-03-31T10:52:31.627Z,3304.46
2023-03-31T10:53:26.998Z,3172.91
2023-03-31T10:54:22.632Z,3272.06
2023-03-31T10:55:17.938Z,3447.39
2023-03-31T10:56:13.740Z,3588.71
2023-03-31T10:57:08.971Z,3703.19
2023-03-31T10:58:04.329Z,4006.00
2023-03-31T10:59:05.963Z,4224.68
2023-03-31T10:59:56.285Z,4352.08
2023-03-31T11:00:50.584Z,4513.95
2023-03-31T11:01:45.971Z,4591.57
2023-03-31T11:02:41.553Z,4517.77
2023-03-31T11:03:37.024Z,3883.64
2023-03-31T11:04:32.519Z,3510.85
2023-03-31T11:05:28.156Z,3787.23
2023-03-31T11:06:23.645Z,3938.05
2023-03-31T11:07:19.292Z,3982.10
2023-03-31T11:08:14.629Z,4073.23
2023-03-31T11:09:10.069Z,4076.34
2023-03-31T11:10:05.533Z,3872.37
2023-03-31T11:11:01.025Z,4171.88
2023-03-31T11:11:56.414Z,4391.45
2023-03-31T11:12:51.632Z,4579.76
2023-03-31T11:13:47.260Z,4725.66
2023-03-31T11:14:42.686Z,4700.70
2023-03-31T11:15:38.154Z,4908.09
2023-03-31T11:16:33.524Z,5159.42
2023-03-31T11:17:29.076Z,5287.13
2023-03-31T11:18:24.693Z,5324.03
2023-03-31T11:19:20.068Z,5194.55
2023-03-31T11:20:15.297Z,5465.71
2023-03-31T11:21:10.701Z,5550.94
2023-03-31T11:22:06.118Z,5662.78
2023-03-31T11:23:01.647Z,5609.24
2023-03-31T11:23:57.076Z,5482.55
2023-03-31T11:24:52.521Z,5004.69
2023-03-31T11:25:48.159Z,5023.52
2023-03-31T11:26:43.529Z,5090.56
2023-03-31T11:27:39.062Z,5366.83
2023-03-31T11:28:34.301Z,5545.17
2023-03-31T11:29:29.842Z,5705.13
2023-03-31T11:30:25.323Z,5482.55